Time;durP1;ratioP1;P1;durP2;ratioP2;P2;SDS_P1;SDS_P2;PMS_P1;PMS_P2;Temp;Humidity;BMP_temperature;BMP_pressure;BME280_temperature;BME280_humidity;BME280_pressure;Samples;Min_cycle;Max_cycle;Signal;HPM_P1;HPM_P2
2022/03/30 00:01:48;;;;;;;56.75;23.27;;;;;;;7.37;87.21;100661.19;5113858;28;20093;-78
2022/03/30 00:04:14;;;;;;;70.85;24.55;;;;;;;7.34;87.77;100669.56;5113353;28;20107;-79
2022/03/30 00:06:39;;;;;;;68.97;22.70;;;;;;;7.34;87.89;100672.22;5094411;28;20138;-77
2022/03/30 00:09:04;;;;;;;72.50;24.13;;;;;;;7.29;88.19;100669.34;5095097;28;20480;-79
2022/03/30 00:14:51;;;;;;;62.53;22.00;;;;;;;7.31;87.92;100664.63;5113546;28;20069;-79
2022/03/30 00:17:18;;;;;;;64.53;23.15;;;;;;;7.33;87.75;100678.56;5113283;28;20031;-79
2022/03/30 00:19:44;;;;;;;62.08;22.25;;;;;;;7.30;88.28;100669.13;5094244;28;20118;-79
2022/03/30 00:22:09;;;;;;;61.35;21.58;;;;;;;7.23;88.17;100659.44;5113163;28;20605;-80
2022/03/30 00:24:35;;;;;;;67.68;21.98;;;;;;;7.23;88.19;100665.63;5112607;28;20036;-79
2022/03/30 00:30:23;;;;;;;67.93;23.48;;;;;;;7.20;88.49;100658.00;5113028;28;20515;-79
2022/03/30 00:32:49;;;;;;;64.90;24.33;;;;;;;7.17;88.11;100660.25;5112152;28;20127;-79
2022/03/30 00:35:15;;;;;;;65.20;23.60;;;;;;;7.12;88.68;100656.34;5094521;28;20445;-79
2022/03/30 00:37:41;;;;;;;73.28;26.02;;;;;;;7.08;88.52;100652.44;5111979;28;20122;-80
2022/03/30 00:40:10;;;;;;;67.88;22.05;;;;;;;7.06;89.19;100651.81;5112852;28;20027;-79
2022/03/30 00:42:36;;;;;;;64.80;23.17;;;;;;;7.00;89.45;100655.25;5112732;28;20035;-79
2022/03/30 00:45:09;;;;;;;61.00;21.33;;;;;;;6.95;89.36;100657.69;5093829;28;20039;-79
2022/03/30 00:47:34;;;;;;;65.78;23.23;;;;;;;6.97;89.17;100660.97;5112706;28;20088;-79
2022/03/30 00:49:59;;;;;;;59.55;22.60;;;;;;;6.80;89.18;100652.47;5111503;28;20036;-79
2022/03/30 00:55:46;;;;;;;61.58;20.58;;;;;;;6.68;90.49;100662.00;5112774;28;20092;-79
2022/03/30 00:58:13;;;;;;;68.18;22.42;;;;;;;6.62;90.57;100653.94;5094254;28;20023;-79
2022/03/30 01:00:38;;;;;;;66.18;22.83;;;;;;;6.60;91.14;100659.44;5112391;28;20085;-79
2022/03/30 01:03:03;;;;;;;58.65;23.65;;;;;;;6.50;91.61;100653.66;5110834;28;20437;-79
2022/03/30 01:08:51;;;;;;;66.65;22.73;;;;;;;6.27;91.55;100643.25;5112352;28;20077;-79
2022/03/30 01:11:16;;;;;;;65.32;21.63;;;;;;;6.17;92.40;100642.75;5093999;28;20031;-78
2022/03/30 01:13:42;;;;;;;67.40;22.35;;;;;;;6.10;92.84;100647.19;5112279;28;20024;-79
2022/03/30 01:16:07;;;;;;;64.45;21.60;;;;;;;5.97;92.79;100636.44;5111386;28;20047;-78
2022/03/30 01:18:40;;;;;;;57.10;19.95;;;;;;;5.98;92.54;100636.22;5112166;28;20020;-79
2022/03/30 01:24:28;;;;;;;63.38;21.35;;;;;;;5.74;94.80;100629.41;5112334;28;20507;-80
2022/03/30 01:33:03;;;;;;;61.80;21.90;;;;;;;5.73;94.28;100622.47;5111538;28;20096;-80
2022/03/30 01:38:51;;;;;;;58.00;20.73;;;;;;;5.71;94.06;100628.97;5111998;28;20055;-80
2022/03/30 01:41:16;;;;;;;60.72;21.80;;;;;;;5.68;94.72;100624.88;5111804;28;20024;-80
2022/03/30 01:43:41;;;;;;;61.05;20.65;;;;;;;5.69;94.57;100629.16;5111973;28;20387;-80
2022/03/30 01:46:07;;;;;;;65.47;22.50;;;;;;;5.60;95.07;100631.13;5093009;28;20154;-80
2022/03/30 01:48:32;;;;;;;62.17;21.67;;;;;;;5.57;95.65;100636.78;5093287;28;20081;-82
2022/03/30 01:54:22;;;;;;;64.30;21.60;;;;;;;5.52;95.06;100606.53;5112151;28;20081;-83
2022/03/30 01:56:49;;;;;;;71.45;20.85;;;;;;;5.55;96.00;100619.44;5111609;28;20040;-82
2022/03/30 01:59:15;;;;;;;67.03;21.88;;;;;;;5.52;95.78;100610.03;5110915;28;20082;-81
2022/03/30 02:05:02;;;;;;;59.38;20.95;;;;;;;5.60;96.26;100598.47;5111561;28;20432;-81
2022/03/30 02:10:49;;;;;;;65.43;21.27;;;;;;;5.60;96.82;100598.47;5111894;28;20138;-79
2022/03/30 02:16:36;;;;;;;66.38;21.70;;;;;;;5.52;95.67;100599.41;5115167;28;20050;-81
2022/03/30 02:19:02;;;;;;;63.22;22.75;;;;;;;5.50;95.83;100605.91;5096648;28;20019;-80
2022/03/30 02:21:29;;;;;;;68.15;23.42;;;;;;;5.42;96.87;100592.75;5114983;28;20036;-80
2022/03/30 02:23:54;;;;;;;63.63;21.52;;;;;;;5.42;96.66;100588.25;5095923;28;20039;-80
2022/03/30 02:26:20;;;;;;;63.92;21.65;;;;;;;5.40;96.87;100584.16;5096542;28;20077;-80
2022/03/30 02:28:51;;;;;;;69.90;23.33;;;;;;;5.36;96.94;100577.59;5114143;28;20487;-81
2022/03/30 02:31:20;;;;;;;66.78;22.17;;;;;;;5.37;97.69;100576.56;5114639;28;20412;-81
2022/03/30 02:33:46;;;;;;;62.90;22.45;;;;;;;5.31;97.60;100574.69;5096493;28;20077;-81
2022/03/30 02:36:12;;;;;;;66.88;23.63;;;;;;;5.33;97.47;100570.84;5095832;28;20035;-81
2022/03/30 02:38:37;;;;;;;70.82;22.90;;;;;;;5.29;96.92;100564.25;5114504;28;20111;-81
2022/03/30 02:41:05;;;;;;;66.53;23.33;;;;;;;5.25;96.79;100561.16;5114023;28;20111;-81
2022/03/30 02:43:30;;;;;;;68.65;21.77;;;;;;;5.27;96.56;100556.50;5096152;28;20433;-81
2022/03/30 02:45:55;;;;;;;66.60;21.83;;;;;;;5.31;97.05;100564.06;5096192;28;20131;-81
2022/03/30 02:48:28;;;;;;;65.05;20.42;;;;;;;5.25;96.70;100552.41;5095535;28;20126;-80
2022/03/30 02:50:56;;;;;;;69.97;21.58;;;;;;;5.28;96.66;100547.53;5114738;28;20157;-80
2022/03/30 02:53:22;;;;;;;68.10;21.17;;;;;;;5.21;97.41;100548.47;5114601;28;20102;-81
2022/03/30 02:55:47;;;;;;;63.50;22.58;;;;;;;5.28;97.67;100555.50;5113935;28;20131;-81
2022/03/30 02:58:13;;;;;;;68.60;22.13;;;;;;;5.23;97.57;100535.84;5096142;28;20129;-80
2022/03/30 03:00:40;;;;;;;67.47;21.50;;;;;;;5.29;96.76;100551.84;5114896;28;20046;-80
2022/03/30 03:03:07;;;;;;;72.45;21.08;;;;;;;5.20;96.98;100545.00;5097288;28;20059;-79
2022/03/30 03:05:33;;;;;;;62.25;21.65;;;;;;;5.13;97.91;100541.44;5097269;28;20030;-79
2022/03/30 03:07:59;;;;;;;62.67;21.13;;;;;;;5.16;97.68;100543.72;5095472;28;20039;-78
2022/03/30 03:10:25;;;;;;;64.57;20.15;;;;;;;5.14;97.31;100551.03;5095766;28;20108;-79
2022/03/30 03:12:51;;;;;;;68.80;21.73;;;;;;;5.09;97.79;100542.81;5113557;28;20031;-79
2022/03/30 03:15:17;;;;;;;62.55;20.27;;;;;;;5.00;97.79;100535.16;5113905;28;20039;-79
2022/03/30 03:17:42;;;;;;;60.97;22.23;;;;;;;5.01;98.45;100548.22;5114245;28;20084;-79
2022/03/30 03:20:08;;;;;;;62.05;20.70;;;;;;;4.99;98.67;100542.28;5113257;28;20044;-79
2022/03/30 03:22:33;;;;;;;63.90;21.60;;;;;;;4.97;98.63;100536.38;5113861;28;20460;-79
2022/03/30 03:24:59;;;;;;;63.33;23.50;;;;;;;4.96;99.08;100535.53;5113867;28;20066;-79
2022/03/30 03:27:24;;;;;;;63.00;20.95;;;;;;;5.00;98.64;100532.53;5112800;28;20044;-78
2022/03/30 03:29:49;;;;;;;61.35;19.88;;;;;;;4.93;98.97;100532.44;5113856;28;20027;-78
2022/03/30 03:35:37;;;;;;;64.07;19.60;;;;;;;4.80;100.00;100514.53;5114084;28;20085;-78
2022/03/30 03:38:03;;;;;;;70.13;21.85;;;;;;;4.85;100.00;100509.50;5112876;28;20055;-78
2022/03/30 03:40:32;;;;;;;68.82;23.98;;;;;;;4.79;100.00;100517.38;5113768;28;20080;-79
2022/03/30 03:42:59;;;;;;;71.72;21.55;;;;;;;4.75;100.00;100510.81;5113859;28;20027;-79
2022/03/30 03:48:45;;;;;;;59.55;20.02;;;;;;;4.63;100.00;100508.63;5113744;28;20427;-80
2022/03/30 03:51:11;;;;;;;65.70;21.45;;;;;;;4.60;100.00;100510.81;5112973;28;20091;-79
2022/03/30 03:53:36;;;;;;;62.22;20.77;;;;;;;4.52;100.00;100506.44;5113504;28;20024;-80
2022/03/30 03:56:03;;;;;;;70.18;21.27;;;;;;;4.49;100.00;100512.09;5095248;28;20460;-79
2022/03/30 03:58:28;;;;;;;68.72;23.45;;;;;;;4.39;100.00;100502.78;5112522;28;20416;-80
2022/03/30 04:00:54;;;;;;;61.55;21.70;;;;;;;4.39;100.00;100508.09;5094969;28;20024;-78
2022/03/30 04:06:41;;;;;;;65.45;21.13;;;;;;;4.18;100.00;100495.56;5113204;28;20388;-77
2022/03/30 04:09:06;;;;;;;68.45;22.35;;;;;;;4.14;100.00;100504.88;5113122;28;20020;-77
2022/03/30 04:14:53;;;;;;;67.80;24.40;;;;;;;3.95;100.00;100499.06;5113366;28;20047;-78
2022/03/30 04:17:18;;;;;;;66.25;20.58;;;;;;;3.89;100.00;100502.44;5094186;28;20036;-78
2022/03/30 04:19:44;;;;;;;65.95;21.83;;;;;;;3.77;100.00;100498.59;5112981;28;20040;-78
2022/03/30 04:22:09;;;;;;;64.03;21.92;;;;;;;3.77;100.00;100498.59;5093901;28;20065;-78
2022/03/30 04:24:34;;;;;;;69.63;21.30;;;;;;;3.62;100.00;100481.84;5094569;28;20124;-78
2022/03/30 04:27:00;;;;;;;62.92;20.73;;;;;;;3.58;100.00;100491.97;5094596;28;20072;-78
2022/03/30 04:29:25;;;;;;;55.72;20.73;;;;;;;3.53;100.00;100496.97;5111872;28;20452;-78
2022/03/30 04:31:50;;;;;;;65.45;22.23;;;;;;;3.43;100.00;100491.88;5094675;28;20080;-78
2022/03/30 04:34:16;;;;;;;67.30;21.13;;;;;;;3.43;100.00;100499.81;5112164;28;20111;-78
2022/03/30 04:36:41;;;;;;;64.70;20.98;;;;;;;3.35;100.00;100502.53;5112516;28;20106;-78
2022/03/30 04:39:06;;;;;;;64.68;19.42;;;;;;;3.26;100.00;100487.72;5093391;28;20039;-80
2022/03/30 04:41:33;;;;;;;60.00;21.25;;;;;;;3.28;100.00;100496.31;5093870;28;20047;-81
2022/03/30 04:43:58;;;;;;;67.72;22.88;;;;;;;3.23;100.00;100500.47;5094210;28;20030;-81
2022/03/30 04:49:45;;;;;;;60.00;20.27;;;;;;;3.21;100.00;100503.28;5112980;28;20073;-78
2022/03/30 04:52:10;;;;;;;61.63;20.58;;;;;;;3.22;100.00;100506.75;5093702;28;20024;-78
2022/03/30 04:54:36;;;;;;;86.40;21.42;;;;;;;3.18;100.00;100510.72;5094100;28;20035;-78
2022/03/30 05:00:24;;;;;;;69.32;21.60;;;;;;;3.19;100.00;100502.63;5112991;28;20043;-79
2022/03/30 05:02:49;;;;;;;69.22;21.85;;;;;;;3.15;100.00;100506.59;5094420;28;20032;-82
2022/03/30 05:05:14;;;;;;;68.55;22.27;;;;;;;3.12;100.00;100506.94;5111682;28;20476;-83
2022/03/30 05:11:01;;;;;;;59.78;20.05;;;;;;;3.03;100.00;100508.00;5112729;28;20046;-78
2022/03/30 05:16:48;;;;;;;69.35;20.00;;;;;;;3.00;100.00;100497.78;5112505;28;20132;-79
2022/03/30 05:19:14;;;;;;;63.15;20.65;;;;;;;3.03;100.00;100492.97;5093807;28;20411;-81
2022/03/30 05:21:39;;;;;;;64.10;21.88;;;;;;;3.04;100.00;100485.88;5111439;28;20054;-79
2022/03/30 05:27:26;;;;;;;70.38;20.25;;;;;;;3.16;100.00;100481.81;5111628;28;20461;-80
2022/03/30 05:29:52;;;;;;;67.07;21.73;;;;;;;3.22;100.00;100483.78;5093822;28;20028;-79
2022/03/30 05:35:39;;;;;;;76.45;22.10;;;;;;;3.25;100.00;100494.00;5112400;28;20160;-81
2022/03/30 05:41:26;;;;;;;62.90;20.30;;;;;;;3.20;100.00;100484.97;5112378;28;20121;-81
2022/03/30 05:47:17;;;;;;;64.97;21.77;;;;;;;3.25;100.00;100461.50;5113998;28;20069;-83
2022/03/30 05:53:05;;;;;;;59.88;21.00;;;;;;;3.97;100.00;100478.56;5116103;28;20043;-84
2022/03/30 05:58:52;;;;;;;63.05;21.52;;;;;;;4.57;100.00;100490.81;5115836;28;20510;-79
2022/03/30 06:04:41;;;;;;;62.92;21.27;;;;;;;4.77;100.00;100493.72;5115455;28;20092;-78
2022/03/30 06:10:31;;;;;;;73.28;22.45;;;;;;;5.33;99.23;100503.75;5115745;28;20560;-81
2022/03/30 06:16:18;;;;;;;72.45;22.60;;;;;;;6.17;94.96;100494.09;5115523;28;20092;-81
2022/03/30 06:22:08;;;;;;;68.55;20.70;;;;;;;6.73;90.83;100504.66;5115833;28;20166;-82
2022/03/30 06:24:38;;;;;;;65.70;21.30;;;;;;;6.82;90.53;100503.44;5096468;28;20023;-81
2022/03/30 06:33:49;;;;;;;62.38;21.02;;;;;;;8.13;83.93;100502.06;5115095;28;20393;-77
2022/03/30 06:39:36;;;;;;;82.85;22.27;;;;;;;9.28;75.63;100490.66;5115248;28;20131;-78
2022/03/30 06:45:23;;;;;;;65.80;21.67;;;;;;;10.08;71.92;100493.53;5114758;28;20057;-79
2022/03/30 06:51:11;;;;;;;66.10;22.27;;;;;;;10.98;68.92;100504.53;5114807;28;20034;-77
2022/03/30 06:56:59;;;;;;;63.70;18.90;;;;;;;12.00;65.67;100500.00;5114904;28;20046;-76
2022/03/30 06:59:25;;;;;;;58.58;20.70;;;;;;;12.35;63.93;100502.69;5114239;28;20078;-76
2022/03/30 07:01:51;;;;;;;76.45;21.95;;;;;;;12.56;62.15;100492.41;5101368;28;20047;-77
2022/03/30 07:10:23;;;;;;;71.32;23.00;;;;;;;13.42;57.85;100486.09;5114279;28;20506;-74
2022/03/30 07:12:51;;;;;;;65.43;22.50;;;;;;;13.84;56.36;100499.16;5113341;28;20468;-78
2022/03/30 07:15:20;;;;;;;70.70;23.38;;;;;;;14.08;54.72;100484.50;5113996;28;20105;-76
2022/03/30 07:17:54;;;;;;;63.42;21.70;;;;;;;14.29;55.55;100493.69;5095136;28;20043;-78
2022/03/30 07:23:40;;;;;;;59.13;21.85;;;;;;;15.14;51.22;100497.78;5114316;28;20065;-77
2022/03/30 07:26:06;;;;;;;67.23;23.80;;;;;;;15.38;50.29;100482.13;5113862;28;20024;-77
2022/03/30 07:31:53;;;;;;;65.18;23.17;;;;;;;15.94;48.33;100485.34;5114249;28;20039;-78
2022/03/30 07:34:18;;;;;;;69.80;23.10;;;;;;;16.53;47.04;100487.91;5094382;28;20043;-78
2022/03/30 07:40:08;;;;;;;60.78;20.92;;;;;;;17.07;44.84;100482.22;5113159;28;20080;-79
2022/03/30 07:45:55;;;;;;;59.90;22.50;;;;;;;18.63;41.75;100496.88;5113807;28;20050;-79
2022/03/30 07:48:21;;;;;;;69.95;23.27;;;;;;;18.90;40.39;100490.25;5113424;28;20031;-78
2022/03/30 07:54:08;;;;;;;59.25;21.95;;;;;;;19.54;38.06;100492.91;5113936;28;20411;-78
2022/03/30 07:56:34;;;;;;;55.03;23.20;;;;;;;19.22;38.18;100487.94;5113213;28;20032;-81
2022/03/30 08:02:21;;;;;;;58.00;21.83;;;;;;;18.51;38.49;100499.84;5113165;28;20042;-77
2022/03/30 08:04:47;;;;;;;53.25;22.92;;;;;;;18.03;39.68;100479.63;5112846;28;20122;-79
2022/03/30 08:10:35;;;;;;;55.08;22.25;;;;;;;17.74;39.72;100486.69;5113247;28;20046;-80
2022/03/30 08:13:02;;;;;;;65.88;22.15;;;;;;;17.41;41.69;100505.00;5113356;28;20095;-77
2022/03/30 08:15:28;;;;;;;61.15;22.02;;;;;;;16.83;42.31;100489.97;5094466;28;20036;-75
2022/03/30 08:17:54;;;;;;;48.65;19.67;;;;;;;16.86;42.21;100503.75;5094680;28;20438;-77
2022/03/30 08:26:26;;;;;;;45.42;20.13;;;;;;;18.96;38.17;100497.28;5112826;28;20039;-79
2022/03/30 08:28:51;;;;;;;46.85;21.58;;;;;;;19.71;36.87;100506.91;5113185;28;20464;-78
2022/03/30 08:31:17;;;;;;;51.83;21.80;;;;;;;20.34;35.85;100501.44;5112162;28;20047;-78
2022/03/30 08:33:42;;;;;;;50.50;22.77;;;;;;;20.61;35.00;100492.75;5094579;28;20034;-78
2022/03/30 08:36:08;;;;;;;48.38;21.13;;;;;;;20.13;35.48;100499.22;5094627;28;20292;-79
2022/03/30 08:38:33;;;;;;;47.53;20.40;;;;;;;20.38;35.22;100490.81;5093592;28;20032;-79
2022/03/30 08:40:59;;;;;;;46.45;19.80;;;;;;;20.67;35.24;100490.78;5094489;28;20786;-78
2022/03/30 08:43:29;;;;;;;42.85;19.38;;;;;;;19.96;35.80;100495.03;5111778;28;20048;-80
2022/03/30 08:45:57;;;;;;;42.58;16.63;;;;;;;19.96;36.04;100486.88;5094270;28;20038;-80
2022/03/30 08:48:22;;;;;;;43.13;17.20;;;;;;;20.21;34.68;100479.56;5111799;28;20080;-79
2022/03/30 08:50:49;;;;;;;40.83;17.58;;;;;;;21.01;33.98;100483.28;5112576;28;20023;-78
2022/03/30 08:53:16;;;;;;;45.97;19.48;;;;;;;21.48;33.35;100486.22;5112395;28;20106;-80
2022/03/30 08:55:41;;;;;;;37.60;17.25;;;;;;;21.78;32.25;100484.91;5111728;28;20042;-81
2022/03/30 08:58:07;;;;;;;42.47;19.75;;;;;;;21.07;33.56;100475.06;5112578;28;20023;-77
2022/03/30 09:00:34;;;;;;;34.83;17.05;;;;;;;20.57;34.20;100482.78;5111503;28;20035;-79
2022/03/30 09:03:00;;;;;;;42.58;19.48;;;;;;;19.62;36.44;100478.72;5094003;28;20030;-78
2022/03/30 09:05:34;;;;;;;43.20;18.60;;;;;;;18.95;37.50;100463.13;5093253;28;20384;-77
2022/03/30 09:08:10;;;;;;;38.97;16.38;;;;;;;19.49;37.76;100477.44;5112315;28;20024;-79
2022/03/30 09:10:37;;;;;;;42.78;17.90;;;;;;;19.37;37.37;100471.56;5093539;28;20391;-78
2022/03/30 09:13:04;;;;;;;37.58;19.60;;;;;;;19.47;36.70;100473.41;5111899;28;20043;-79
2022/03/30 09:15:29;;;;;;;36.67;19.08;;;;;;;18.76;39.08;100469.16;5112244;28;20080;-79
2022/03/30 09:18:00;;;;;;;45.63;19.80;;;;;;;18.60;39.02;100478.44;5093381;28;20047;-79
2022/03/30 09:20:26;;;;;;;41.25;19.30;;;;;;;18.85;38.26;100474.84;5093813;28;20145;-77
2022/03/30 09:22:57;;;;;;;45.05;19.10;;;;;;;19.36;37.57;100469.94;5111355;28;20039;-79
2022/03/30 09:25:27;;;;;;;39.17;17.77;;;;;;;19.76;37.44;100462.63;5111567;28;20365;-78
2022/03/30 09:27:55;;;;;;;38.38;17.00;;;;;;;20.42;35.17;100460.09;5111204;28;20087;-78
2022/03/30 09:30:21;;;;;;;33.40;16.48;;;;;;;20.20;35.50;100456.22;5093820;28;20027;-78
2022/03/30 09:32:49;;;;;;;43.20;16.83;;;;;;;19.69;35.92;100451.31;5093554;28;20034;-78
2022/03/30 09:35:34;;;;;;;34.88;16.20;;;;;;;19.66;36.96;100451.84;5111099;28;20036;-78
2022/03/30 09:38:05;;;;;;;36.00;19.30;;;;;;;18.98;38.05;100459.88;5093567;28;20032;-79
2022/03/30 09:40:58;;;;;;;36.55;18.13;;;;;;;18.25;39.27;100455.78;5110958;28;20031;-79
2022/03/30 09:43:29;;;;;;;37.80;18.42;;;;;;;17.32;40.00;100442.53;5111986;28;20114;-80
2022/03/30 09:46:13;;;;;;;39.28;17.02;;;;;;;16.94;41.45;100448.41;5110913;28;20468;-78
2022/03/30 09:48:56;;;;;;;39.75;17.75;;;;;;;17.04;43.23;100451.91;5111946;28;20063;-79
2022/03/30 09:51:24;;;;;;;;;;;;;;;17.54;40.81;100441.47;5111502;28;20043;-79
2022/03/30 09:53:50;;;;;;;29.92;14.25;;;;;;;17.50;40.65;100446.59;5093559;28;19919;-79
2022/03/30 09:56:20;;;;;;;35.28;17.95;;;;;;;18.04;40.48;100440.66;5111062;28;20035;-78
2022/03/30 10:02:07;;;;;;;38.38;16.02;;;;;;;19.17;37.23;100433.75;5111408;28;20050;-78
2022/03/30 10:04:34;;;;;;;35.50;15.87;;;;;;;18.73;37.27;100426.38;5093321;28;20027;-78
2022/03/30 10:07:01;;;;;;;37.03;17.98;;;;;;;17.87;39.14;100432.03;5111601;28;20339;-79
2022/03/30 10:09:26;;;;;;;35.28;16.40;;;;;;;18.38;39.31;100421.09;5092607;28;20377;-78
2022/03/30 10:11:52;;;;;;;41.28;17.80;;;;;;;18.83;37.45;100433.66;5093132;28;20043;-79
2022/03/30 10:14:17;;;;;;;35.72;18.42;;;;;;;19.16;36.76;100429.41;5110588;28;20055;-79
2022/03/30 10:16:44;;;;;;;39.72;18.90;;;;;;;18.83;38.18;100429.06;5093158;28;20024;-78
2022/03/30 10:19:09;;;;;;;35.88;18.00;;;;;;;18.49;39.15;100420.75;5110656;28;20575;-78
2022/03/30 10:21:56;;;;;;;34.63;18.52;;;;;;;18.46;38.48;100423.22;5093157;28;20079;-79
2022/03/30 10:24:44;;;;;;;34.28;17.52;;;;;;;18.99;38.40;100418.13;5111374;28;20023;-79
2022/03/30 10:27:20;;;;;;;38.00;18.30;;;;;;;19.37;38.11;100406.50;5109559;28;20027;-79
2022/03/30 10:33:08;;;;;;;34.38;17.63;;;;;;;21.30;33.68;100423.34;5111577;28;20100;-80
2022/03/30 10:35:36;;;;;;;36.95;17.33;;;;;;;21.86;33.56;100416.19;5093043;28;20051;-79
2022/03/30 10:38:01;;;;;;;34.45;17.70;;;;;;;22.26;30.70;100406.47;5106405;28;20055;-79
2022/03/30 10:40:27;;;;;;;33.45;15.88;;;;;;;22.06;31.48;100401.41;5114749;28;20016;-79
2022/03/30 10:42:53;;;;;;;35.92;17.17;;;;;;;21.64;32.03;100404.03;5095518;28;20399;-79
2022/03/30 10:45:28;;;;;;;34.22;17.70;;;;;;;21.89;32.57;100394.59;5114392;28;20111;-79
2022/03/30 10:48:22;;;;;;;34.10;17.35;;;;;;;22.40;31.83;100395.56;5113838;28;20125;-79
2022/03/30 10:50:55;;;;;;;39.80;17.38;;;;;;;21.71;32.02;100379.16;5114516;28;20028;-79
2022/03/30 10:53:30;;;;;;;28.20;15.65;;;;;;;21.05;33.67;100391.06;5113613;28;20051;-79
2022/03/30 10:56:19;;;;;;;33.33;15.93;;;;;;;21.33;33.08;100392.84;5096195;28;20391;-81
2022/03/30 11:02:13;;;;;;;30.27;16.63;;;;;;;19.61;34.89;100378.66;5114841;28;20054;-81
2022/03/30 11:04:45;;;;;;;39.53;18.05;;;;;;;18.77;36.40;100373.25;5114311;28;20032;-84
2022/03/30 11:10:48;;;;;;;29.83;18.10;;;;;;;19.14;35.84;100363.84;5114551;28;20399;-78
2022/03/30 11:13:23;;;;;;;32.88;17.83;;;;;;;19.20;36.48;100351.84;5089878;28;20105;-78
2022/03/30 11:19:10;;;;;;;36.33;17.55;;;;;;;21.48;32.40;100359.16;5114310;28;20165;-84
2022/03/30 11:21:36;;;;;;;31.27;15.75;;;;;;;21.35;31.56;100357.19;5114650;28;20063;-77
2022/03/30 11:27:23;;;;;;;30.42;16.75;;;;;;;20.64;34.62;100352.81;5114306;28;20074;-78
2022/03/30 11:33:22;;;;;;;31.27;16.10;;;;;;;18.73;37.62;100338.91;5114099;28;20062;-78
2022/03/30 11:39:12;;;;;;;27.88;15.88;;;;;;;20.04;34.10;100328.81;5113899;28;20055;-74
2022/03/30 11:41:38;;;;;;;25.83;14.45;;;;;;;19.51;34.07;100322.56;5112800;28;20130;-77
2022/03/30 11:47:25;;;;;;;25.52;14.35;;;;;;;18.38;36.75;100307.38;5113697;28;20042;-79
2022/03/30 11:53:20;;;;;;;29.85;15.57;;;;;;;18.04;37.96;100323.50;5113773;28;20050;-79
2022/03/30 11:55:50;;;;;;;28.55;15.80;;;;;;;18.10;37.71;100319.69;5113476;28;20055;-78
2022/03/30 11:58:32;;;;;;;24.35;13.73;;;;;;;18.62;37.06;100311.06;5113118;28;20039;-76
2022/03/30 12:04:19;;;;;;;29.45;14.70;;;;;;;20.15;33.60;100305.06;5113339;28;20112;-80
2022/03/30 12:06:48;;;;;;;26.77;13.43;;;;;;;20.38;33.15;100295.25;5113157;28;20024;-79
2022/03/30 12:09:17;;;;;;;23.15;11.98;;;;;;;20.47;32.54;100301.69;5094795;28;20028;-81
2022/03/30 12:15:07;;;;;;;27.83;16.23;;;;;;;18.94;36.21;100299.75;5113412;28;20047;-80
2022/03/30 12:17:34;;;;;;;28.45;14.00;;;;;;;18.79;37.18;100291.72;5094271;28;20092;-79
2022/03/30 12:20:01;;;;;;;25.48;14.60;;;;;;;18.67;35.46;100294.78;5094779;28;20536;-78
2022/03/30 12:22:28;;;;;;;27.27;14.25;;;;;;;18.87;35.04;100299.25;5094122;28;20463;-79
2022/03/30 12:24:53;;;;;;;30.77;15.43;;;;;;;18.91;35.34;100289.47;5113246;28;20034;-79
2022/03/30 12:30:41;;;;;;;24.77;13.20;;;;;;;19.13;34.09;100242.97;5113193;28;20426;-81
2022/03/30 12:33:07;;;;;;;26.42;12.40;;;;;;;19.75;33.83;100254.81;5077801;28;20035;-77
2022/03/30 12:38:54;;;;;;;28.42;14.38;;;;;;;20.59;34.45;100269.47;5113023;28;20081;-78
2022/03/30 12:44:46;;;;;;;26.65;14.38;;;;;;;20.51;31.45;100277.44;5112771;28;20093;-76
2022/03/30 12:47:32;;;;;;;27.00;14.90;;;;;;;19.99;33.35;100274.59;5111750;28;20047;-74
2022/03/30 12:50:05;;;;;;;25.65;13.77;;;;;;;19.56;32.64;100272.91;5094326;28;20092;-75
2022/03/30 12:52:36;;;;;;;24.55;12.88;;;;;;;18.68;34.74;100249.56;5111834;28;20828;-74
2022/03/30 12:55:18;;;;;;;26.92;13.85;;;;;;;18.72;35.01;100261.44;5094162;28;20032;-74
2022/03/30 12:57:56;;;;;;;27.73;14.10;;;;;;;19.65;34.40;100260.31;5111708;28;20054;-76
2022/03/30 13:07:41;;;;;;;22.55;12.38;;;;;;;22.17;30.61;100245.66;5112190;28;20288;-72
2022/03/30 13:10:09;;;;;;;21.50;12.55;;;;;;;22.38;29.16;100237.03;5093174;28;20039;-75
2022/03/30 13:12:46;;;;;;;23.58;12.30;;;;;;;21.94;29.72;100236.59;5112280;28;20024;-73
2022/03/30 13:15:14;;;;;;;26.92;13.57;;;;;;;21.31;30.73;100239.19;5093013;28;20031;-75
2022/03/30 13:18:03;;;;;;;31.60;14.38;;;;;;;20.84;31.97;100237.56;5093843;28;20123;-75
2022/03/30 13:20:33;;;;;;;24.88;13.52;;;;;;;19.79;32.76;100224.09;5112246;28;20055;-76
2022/03/30 13:23:10;;;;;;;21.55;12.93;;;;;;;18.49;34.64;100228.50;5111155;28;20105;-76
2022/03/30 13:25:44;;;;;;;27.58;13.93;;;;;;;17.23;36.82;100224.44;5111911;28;20062;-74
2022/03/30 13:28:24;;;;;;;21.38;13.57;;;;;;;16.57;38.61;100217.16;5111215;28;20056;-75
2022/03/30 13:30:50;;;;;;;22.38;13.52;;;;;;;15.94;39.38;100215.69;5112048;28;20104;-74
2022/03/30 13:36:38;;;;;;;22.20;12.13;;;;;;;16.24;39.79;100207.69;5112262;28;20560;-75
2022/03/30 13:39:05;;;;;;;22.60;12.07;;;;;;;16.86;36.31;100203.16;5092807;28;20601;-75
2022/03/30 13:41:31;;;;;;;20.52;11.57;;;;;;;17.36;36.27;100199.56;5093461;28;20016;-74
2022/03/30 13:43:57;;;;;;;22.73;13.02;;;;;;;17.81;36.13;100198.59;5093417;28;20076;-75
2022/03/30 13:46:22;;;;;;;17.95;11.50;;;;;;;17.89;35.68;100191.81;5110806;28;20545;-75
2022/03/30 13:52:10;;;;;;;18.77;9.38;;;;;;;17.39;37.32;100184.69;5111917;28;20090;-75
2022/03/30 13:54:35;;;;;;;19.30;10.55;;;;;;;16.99;35.75;100176.41;5111736;28;20024;-75
2022/03/30 13:57:01;;;;;;;17.25;9.57;;;;;;;16.89;36.40;100173.72;5110825;28;20048;-74
2022/03/30 13:59:26;;;;;;;19.85;10.10;;;;;;;16.69;36.90;100174.53;5111774;28;20023;-74
2022/03/30 14:01:51;;;;;;;17.77;10.50;;;;;;;16.49;37.51;100171.81;5110874;28;20429;-75
2022/03/30 14:04:17;;;;;;;17.55;8.98;;;;;;;16.43;36.66;100172.88;5111401;28;20043;-75
2022/03/30 14:06:42;;;;;;;18.67;10.57;;;;;;;16.37;35.72;100176.66;5093071;28;20024;-74
2022/03/30 14:09:07;;;;;;;17.83;9.38;;;;;;;16.44;35.99;100166.41;5110526;28;20131;-74
2022/03/30 14:11:33;;;;;;;28.05;10.48;;;;;;;16.52;37.08;100168.59;5114821;28;20024;-75
2022/03/30 14:13:58;;;;;;;18.73;9.73;;;;;;;16.34;37.65;100169.09;5114238;28;20044;-75
2022/03/30 14:16:24;;;;;;;17.17;10.55;;;;;;;15.90;38.17;100171.44;5096732;28;20618;-75
2022/03/30 14:18:49;;;;;;;16.73;10.00;;;;;;;15.71;38.91;100171.13;5096660;28;20530;-75
2022/03/30 14:21:14;;;;;;;16.67;9.07;;;;;;;15.84;37.62;100167.09;5095968;28;20028;-75
2022/03/30 14:23:41;;;;;;;14.85;8.88;;;;;;;15.85;37.36;100168.72;5114990;28;20074;-74
2022/03/30 14:26:06;;;;;;;17.85;9.32;;;;;;;15.84;36.54;100164.41;5113852;28;20132;-75
2022/03/30 14:31:54;;;;;;;12.50;8.23;;;;;;;15.87;36.30;100161.19;5115413;28;20063;-75
2022/03/30 14:34:20;;;;;;;15.38;8.18;;;;;;;15.90;37.97;100147.16;5114851;28;20098;-74
2022/03/30 14:36:45;;;;;;;19.30;10.52;;;;;;;15.85;37.52;100155.25;5113885;28;20395;-73
2022/03/30 14:42:32;;;;;;;17.02;9.98;;;;;;;15.43;36.95;100153.47;5114836;28;20478;-74
2022/03/30 14:44:57;;;;;;;19.35;10.85;;;;;;;15.30;36.94;100141.25;5096339;28;20105;-75
2022/03/30 14:47:23;;;;;;;15.67;8.63;;;;;;;15.34;37.06;100141.56;5114538;28;20024;-72
2022/03/30 14:53:10;;;;;;;16.88;10.20;;;;;;;15.36;37.20;100140.25;5115032;28;20062;-76
2022/03/30 14:58:57;;;;;;;18.75;9.90;;;;;;;15.65;35.56;100129.88;5114316;28;20127;-77
2022/03/30 15:04:47;;;;;;;19.52;10.23;;;;;;;16.05;38.64;100131.84;5114567;28;20066;-75
2022/03/30 15:07:14;;;;;;;19.70;10.48;;;;;;;16.14;37.94;100124.03;5114418;28;20100;-75
2022/03/30 15:13:01;;;;;;;20.90;11.20;;;;;;;16.02;38.84;100115.38;5114522;28;20569;-77
2022/03/30 15:15:26;;;;;;;18.27;10.43;;;;;;;15.88;37.90;100120.47;5096055;28;20032;-77